Time;durP1;ratioP1;P1;durP2;ratioP2;P2;SDS_P1;SDS_P2;PMS_P1;PMS_P2;Temp;Humidity;BMP_temperature;BMP_pressure;BME280_temperature;BME280_humidity;BME280_pressure;Samples;Min_cycle;Max_cycle;Signal;HPM_P1;HPM_P2
2023/05/28 00:01:59;;;;;;;13.63;8.27;;;;;;;13.34;80.24;101185.44;5019395;28;20034;-80
2023/05/28 00:04:26;;;;;;;14.30;7.70;;;;;;;13.34;80.16;101190.69;5010572;28;20056;-80
2023/05/28 00:06:55;;;;;;;12.35;7.57;;;;;;;13.40;80.21;101187.41;5019662;28;20082;-79
2023/05/28 00:09:22;;;;;;;14.65;7.53;;;;;;;13.26;80.71;101195.91;5007639;28;20050;-80
2023/05/28 00:11:49;;;;;;;13.32;8.20;;;;;;;13.23;81.00;101191.00;4998701;28;20050;-80
2023/05/28 00:14:16;;;;;;;13.55;7.63;;;;;;;13.17;81.42;101186.38;4992626;28;20047;-80
2023/05/28 00:16:45;;;;;;;15.40;8.18;;;;;;;13.06;81.58;101182.19;4992241;28;20106;-79
2023/05/28 00:19:13;;;;;;;11.15;7.25;;;;;;;13.07;81.58;101183.03;5001037;28;20060;-81
2023/05/28 00:21:39;;;;;;;16.40;7.93;;;;;;;13.00;81.42;101174.94;4994391;28;20109;-81
2023/05/28 00:24:07;;;;;;;14.63;8.75;;;;;;;12.96;81.65;101178.88;5001526;28;20069;-81
2023/05/28 00:26:33;;;;;;;16.80;8.88;;;;;;;12.92;81.76;101173.13;4999146;28;20071;-79
2023/05/28 00:29:00;;;;;;;17.52;8.60;;;;;;;12.87;81.92;101171.94;4999461;28;20081;-80
2023/05/28 00:31:26;;;;;;;14.68;8.85;;;;;;;12.83;81.90;101168.78;4996494;28;20097;-80
2023/05/28 00:33:53;;;;;;;21.40;9.55;;;;;;;12.83;81.94;101174.06;4998693;28;20150;-81
2023/05/28 00:36:21;;;;;;;14.60;9.13;;;;;;;12.83;82.05;101158.28;4996838;28;20100;-80
2023/05/28 00:38:48;;;;;;;13.25;9.45;;;;;;;12.72;82.14;101168.28;4999705;28;20074;-81
2023/05/28 00:41:20;;;;;;;14.10;8.95;;;;;;;12.62;82.79;101171.84;4999810;28;20066;-79
2023/05/28 00:43:46;;;;;;;17.08;8.75;;;;;;;12.54;83.15;101168.34;4988110;28;20050;-80
2023/05/28 00:46:17;;;;;;;16.90;8.73;;;;;;;12.56;83.03;101179.50;4998221;28;20061;-81
2023/05/28 00:48:44;;;;;;;13.82;8.75;;;;;;;12.56;83.21;101171.63;4987899;28;20074;-81
2023/05/28 00:51:12;;;;;;;15.27;8.63;;;;;;;12.55;83.27;101170.81;5000569;28;20081;-80
2023/05/28 00:53:42;;;;;;;16.38;9.20;;;;;;;12.59;83.64;101171.31;4990738;28;20070;-81
2023/05/28 00:56:10;;;;;;;16.77;8.95;;;;;;;12.54;83.97;101176.22;4992767;28;20134;-80
2023/05/28 00:58:39;;;;;;;19.08;9.02;;;;;;;12.45;84.00;101174.50;4997784;28;20060;-79
2023/05/28 01:01:06;;;;;;;13.27;9.10;;;;;;;12.38;84.24;101176.94;4995319;28;20560;-80
2023/05/28 01:03:37;;;;;;;11.88;8.52;;;;;;;12.29;84.54;101173.41;4988600;28;20042;-80
2023/05/28 01:06:09;;;;;;;12.05;8.82;;;;;;;12.29;84.85;101168.16;4995816;28;20133;-80
2023/05/28 01:08:36;;;;;;;13.40;8.52;;;;;;;12.22;84.90;101169.78;4995446;28;20102;-79
2023/05/28 01:11:05;;;;;;;15.93;8.90;;;;;;;12.23;85.12;101166.19;4988756;28;20050;-79
2023/05/28 01:13:33;;;;;;;16.17;9.55;;;;;;;12.24;84.84;101165.22;4978066;28;20046;-78
2023/05/28 01:16:01;;;;;;;19.83;10.73;;;;;;;12.26;85.10;101155.38;4993048;28;20050;-80
2023/05/28 01:18:28;;;;;;;14.25;9.63;;;;;;;12.19;85.07;101156.97;4992415;28;20117;-78
2023/05/28 01:20:55;;;;;;;16.85;9.15;;;;;;;12.19;85.21;101164.03;4987116;28;20054;-83
2023/05/28 01:23:24;;;;;;;14.88;9.35;;;;;;;12.18;85.15;101159.75;4988771;28;20049;-83
2023/05/28 01:25:55;;;;;;;13.48;9.15;;;;;;;12.20;85.47;101163.88;4998385;28;20141;-82
2023/05/28 01:28:22;;;;;;;13.75;9.27;;;;;;;12.15;85.34;101166.13;4997365;28;20077;-80
2023/05/28 01:30:49;;;;;;;17.67;9.73;;;;;;;12.09;85.55;101165.91;4997052;28;20110;-81
2023/05/28 01:33:16;;;;;;;15.05;8.82;;;;;;;11.98;85.88;101166.97;4989297;28;20050;-81
2023/05/28 01:35:43;;;;;;;13.35;9.07;;;;;;;11.92;86.03;101160.53;4983998;28;20514;-81
2023/05/28 01:38:24;;;;;;;16.45;9.15;;;;;;;11.96;86.57;101166.28;4997013;28;20108;-83
2023/05/28 01:40:54;;;;;;;16.40;8.88;;;;;;;11.95;86.31;101159.41;4989627;28;20096;-80
2023/05/28 01:43:21;;;;;;;16.80;9.63;;;;;;;11.92;86.41;101167.56;4988528;28;20439;-79
2023/05/28 01:45:49;;;;;;;14.90;9.00;;;;;;;11.83;86.73;101173.72;4987247;28;20082;-78
2023/05/28 01:48:16;;;;;;;19.42;9.18;;;;;;;11.72;87.04;101168.69;4990808;28;20042;-79
2023/05/28 01:50:43;;;;;;;13.27;9.02;;;;;;;11.69;87.57;101174.25;4982921;28;20113;-78
2023/05/28 01:53:09;;;;;;;14.10;8.98;;;;;;;11.72;87.50;101172.16;4996326;28;20052;-79
2023/05/28 01:55:36;;;;;;;13.77;8.25;;;;;;;11.74;87.78;101161.50;4995186;28;20151;-79
2023/05/28 01:58:04;;;;;;;12.88;8.88;;;;;;;11.65;87.47;101165.84;4996837;28;20137;-79
2023/05/28 02:00:32;;;;;;;13.05;9.25;;;;;;;11.55;87.94;101158.06;4993615;28;20110;-79
2023/05/28 02:02:59;;;;;;;17.35;9.20;;;;;;;11.48;88.18;101166.66;4994941;28;20582;-79
2023/05/28 02:05:25;;;;;;;18.70;9.25;;;;;;;11.62;88.57;101159.09;4993017;28;20138;-79
2023/05/28 02:07:53;;;;;;;16.40;9.35;;;;;;;11.56;88.90;101145.78;4995005;28;20100;-80
2023/05/28 02:10:20;;;;;;;17.05;8.98;;;;;;;11.53;88.38;101151.31;4992866;28;20042;-80
2023/05/28 02:12:47;;;;;;;14.45;9.15;;;;;;;11.47;88.60;101147.50;4987801;28;20050;-79
2023/05/28 02:15:15;;;;;;;12.65;8.60;;;;;;;11.46;88.78;101151.09;4992653;28;20138;-79
2023/05/28 02:17:43;;;;;;;16.75;9.25;;;;;;;11.48;88.96;101149.13;4995180;28;20077;-80
2023/05/28 02:20:11;;;;;;;15.85;9.65;;;;;;;11.48;89.23;101149.13;4987792;28;20533;-79
2023/05/28 02:22:38;;;;;;;16.40;8.88;;;;;;;11.52;89.03;101139.19;4994353;28;20051;-80
2023/05/28 02:25:06;;;;;;;14.00;9.27;;;;;;;11.56;89.41;101141.34;4988607;28;20046;-79
2023/05/28 02:27:32;;;;;;;18.92;9.25;;;;;;;11.52;89.18;101136.56;4990191;28;20060;-79
2023/05/28 02:29:59;;;;;;;16.10;8.98;;;;;;;11.56;88.95;101143.97;4996883;28;20053;-79
2023/05/28 02:32:27;;;;;;;15.95;10.05;;;;;;;11.45;89.35;101143.38;4993663;28;20365;-78
2023/05/28 02:34:54;;;;;;;15.23;10.18;;;;;;;11.37;89.05;101136.25;4997364;28;20178;-80
2023/05/28 02:37:23;;;;;;;17.80;11.45;;;;;;;11.29;89.16;101137.00;4995902;28;20046;-79
2023/05/28 02:39:51;;;;;;;14.88;9.52;;;;;;;11.27;89.60;101132.91;4990681;28;20054;-79
2023/05/28 02:42:18;;;;;;;18.30;9.98;;;;;;;11.24;89.56;101135.81;4993116;28;20388;-79
2023/05/28 02:44:44;;;;;;;15.55;10.23;;;;;;;11.21;89.16;101131.69;4992896;28;20049;-79
2023/05/28 02:47:11;;;;;;;15.13;9.70;;;;;;;11.17;89.61;101126.88;4992128;28;20510;-79
2023/05/28 02:49:39;;;;;;;14.32;9.40;;;;;;;11.08;89.19;101135.63;4996213;28;21666;-79
2023/05/28 02:52:05;;;;;;;13.98;9.32;;;;;;;11.13;89.36;101136.84;4993623;28;20050;-79
2023/05/28 02:54:32;;;;;;;17.65;9.93;;;;;;;11.09;89.48;101147.75;4989667;28;20085;-79
2023/05/28 02:56:59;;;;;;;16.92;10.25;;;;;;;11.09;89.49;101147.75;4993506;28;20077;-80
2023/05/28 02:59:25;;;;;;;16.30;10.45;;;;;;;11.05;89.82;101152.44;4993611;28;20070;-80
2023/05/28 03:01:52;;;;;;;20.52;10.48;;;;;;;11.07;90.03;101139.22;4992352;28;20554;-80
2023/05/28 03:04:18;;;;;;;17.35;10.13;;;;;;;11.04;89.99;101149.97;4991615;28;20475;-80
2023/05/28 03:06:46;;;;;;;18.50;11.73;;;;;;;11.06;89.70;101148.03;4987489;28;20046;-80
2023/05/28 03:09:13;;;;;;;17.35;9.93;;;;;;;11.03;89.74;101158.81;4996180;28;20152;-79
2023/05/28 03:11:39;;;;;;;15.55;9.88;;;;;;;11.04;89.86;101152.59;4983393;28;20084;-79
2023/05/28 03:14:06;;;;;;;18.55;10.52;;;;;;;11.06;89.50;101158.50;4989330;28;20069;-79
2023/05/28 03:16:36;;;;;;;17.58;10.15;;;;;;;11.02;89.41;101157.97;4990371;28;20455;-80
2023/05/28 03:19:06;;;;;;;17.50;10.23;;;;;;;10.94;90.24;101158.69;4983286;28;20054;-80
2023/05/28 03:21:32;;;;;;;16.42;10.18;;;;;;;10.91;90.61;101151.13;4997233;28;20057;-80
2023/05/28 03:24:00;;;;;;;16.65;10.00;;;;;;;10.87;90.51;101152.41;4991840;28;20129;-80
2023/05/28 03:26:27;;;;;;;16.58;9.93;;;;;;;10.87;90.65;101157.63;4989135;28;20153;-79
2023/05/28 03:28:53;;;;;;;19.08;10.68;;;;;;;10.83;90.96;101148.44;4995527;28;20077;-79
2023/05/28 03:31:20;;;;;;;15.90;10.02;;;;;;;10.81;91.26;101150.38;4986339;28;20129;-80
2023/05/28 03:33:47;;;;;;;16.92;10.40;;;;;;;10.81;91.29;101149.56;4996304;28;20038;-81
2023/05/28 03:36:14;;;;;;;16.02;10.07;;;;;;;10.83;91.50;101151.06;4993017;28;20050;-80
2023/05/28 03:38:40;;;;;;;18.75;10.10;;;;;;;10.81;91.61;101145.16;4991466;28;20053;-80
2023/05/28 03:41:08;;;;;;;15.27;10.68;;;;;;;10.84;91.41;101150.09;4992714;28;20117;-79
2023/05/28 03:43:35;;;;;;;20.15;10.65;;;;;;;10.82;91.63;101140.75;4995806;28;20541;-80
2023/05/28 03:46:02;;;;;;;16.38;10.52;;;;;;;10.84;92.24;101154.50;4995905;28;20114;-80
2023/05/28 03:48:29;;;;;;;17.77;10.35;;;;;;;10.86;92.48;101155.19;4997361;28;20050;-80
2023/05/28 03:50:55;;;;;;;17.75;10.68;;;;;;;10.92;92.60;101154.59;4999465;28;20129;-78
2023/05/28 03:53:22;;;;;;;16.50;10.93;;;;;;;11.02;92.75;101157.97;4996024;28;20054;-79
2023/05/28 03:55:51;;;;;;;21.70;11.95;;;;;;;11.19;93.05;101161.63;4997013;28;20073;-79
2023/05/28 03:58:19;;;;;;;18.02;10.73;;;;;;;11.46;92.95;101166.81;4995862;28;20129;-80
2023/05/28 04:00:45;;;;;;;15.43;10.93;;;;;;;11.85;91.52;101156.03;4989061;28;20093;-81
2023/05/28 04:03:12;;;;;;;17.17;10.43;;;;;;;12.32;89.80;101158.34;4996886;28;20137;-80
2023/05/28 04:05:39;;;;;;;19.08;10.63;;;;;;;12.69;87.71;101144.97;4997065;28;20092;-79
2023/05/28 04:08:05;;;;;;;15.13;10.73;;;;;;;12.92;85.68;101141.59;4997164;28;20054;-80
2023/05/28 04:10:32;;;;;;;20.38;10.15;;;;;;;13.16;84.35;101129.56;4992267;28;20082;-79
2023/05/28 04:12:58;;;;;;;14.25;10.02;;;;;;;13.52;83.05;101127.47;4994907;28;20519;-80
2023/05/28 04:15:26;;;;;;;16.52;10.30;;;;;;;13.69;81.65;101133.56;4996005;28;20149;-80
2023/05/28 04:17:53;;;;;;;15.88;9.25;;;;;;;13.50;81.22;101132.91;5000981;28;20061;-81
2023/05/28 04:20:20;;;;;;;15.95;10.23;;;;;;;13.47;81.50;101135.84;4999302;28;20065;-80
2023/05/28 04:22:47;;;;;;;16.08;10.10;;;;;;;13.42;81.87;101146.03;5000114;28;20054;-80
2023/05/28 04:25:13;;;;;;;15.75;10.25;;;;;;;13.80;81.11;101141.94;4994977;28;20102;-80
2023/05/28 04:27:44;;;;;;;15.82;9.73;;;;;;;14.09;79.93;101130.09;4999860;28;20085;-80
2023/05/28 04:30:12;;;;;;;14.07;10.05;;;;;;;14.10;79.39;101147.53;4995222;28;20565;-80
2023/05/28 04:32:40;;;;;;;15.30;9.85;;;;;;;13.83;79.90;101151.31;4999037;28;20100;-80
2023/05/28 04:35:09;;;;;;;16.48;9.73;;;;;;;13.39;80.53;101164.75;4999917;28;20077;-80
2023/05/28 04:37:36;;;;;;;15.98;9.90;;;;;;;13.33;81.27;101162.75;4999024;28;20553;-80
2023/05/28 04:40:03;;;;;;;16.13;9.63;;;;;;;13.39;81.51;101164.75;4997038;28;20061;-80
2023/05/28 04:42:30;;;;;;;14.88;9.55;;;;;;;13.82;80.52;101168.91;4996542;28;20109;-80
2023/05/28 04:44:58;;;;;;;16.90;10.50;;;;;;;14.22;79.27;101169.88;4998888;28;20046;-79
2023/05/28 04:47:24;;;;;;;18.23;9.90;;;;;;;14.13;79.18;101161.19;4996124;28;20090;-80
2023/05/28 04:49:52;;;;;;;15.93;10.32;;;;;;;14.10;79.44;101173.84;4997181;28;20050;-79
2023/05/28 04:52:19;;;;;;;15.88;9.63;;;;;;;14.19;79.65;101167.56;4989540;28;20136;-78
2023/05/28 04:54:46;;;;;;;21.13;10.98;;;;;;;14.42;79.56;101170.38;4995496;28;20042;-80
2023/05/28 04:57:13;;;;;;;17.42;10.60;;;;;;;14.61;78.86;101170.00;4995815;28;20066;-80
2023/05/28 04:59:39;;;;;;;15.10;10.45;;;;;;;14.73;78.54;101176.53;4997784;28;20145;-79
2023/05/28 05:02:06;;;;;;;18.73;10.43;;;;;;;14.89;78.32;101184.38;4994982;28;20467;-79
2023/05/28 05:04:33;;;;;;;15.88;10.52;;;;;;;14.91;77.94;101185.03;4987067;28;20043;-79
2023/05/28 05:07:01;;;;;;;15.02;10.10;;;;;;;14.56;77.87;101169.69;4981532;28;20110;-78
2023/05/28 05:09:30;;;;;;;18.17;10.65;;;;;;;14.90;77.24;101183.38;4994067;28;20498;-78
2023/05/28 05:11:57;;;;;;;17.85;10.15;;;;;;;14.85;77.06;101177.81;4984218;28;20138;-78
2023/05/28 05:14:23;;;;;;;15.88;10.70;;;;;;;15.03;77.20;101182.03;4989648;28;20053;-78
2023/05/28 05:16:50;;;;;;;18.50;10.57;;;;;;;15.65;76.21;101180.19;4993143;28;20054;-79
2023/05/28 05:19:16;;;;;;;13.57;10.45;;;;;;;16.44;74.15;101185.97;4988827;28;20157;-78
2023/05/28 05:21:43;;;;;;;15.93;11.23;;;;;;;17.34;71.12;101186.56;4995521;28;20133;-78
2023/05/28 05:24:11;;;;;;;17.25;10.10;;;;;;;18.11;68.00;101162.84;4989531;28;20129;-78
2023/05/28 05:26:38;;;;;;;16.90;10.40;;;;;;;19.33;64.74;101159.63;4983757;28;20081;-78
2023/05/28 05:29:04;;;;;;;15.93;9.93;;;;;;;19.81;62.76;101155.03;4981530;28;20061;-78
2023/05/28 05:31:31;;;;;;;17.50;10.48;;;;;;;20.03;60.88;101153.78;4985748;28;20133;-78
2023/05/28 05:33:58;;;;;;;16.83;10.40;;;;;;;20.49;60.41;101166.22;4985520;28;20051;-78
2023/05/28 05:36:24;;;;;;;16.17;10.75;;;;;;;19.99;60.66;101173.81;4994321;28;20050;-79
2023/05/28 05:38:51;;;;;;;14.07;10.68;;;;;;;19.88;61.06;101171.75;4988637;28;20510;-79
2023/05/28 05:41:21;;;;;;;14.30;9.55;;;;;;;20.00;60.68;101174.63;4989730;28;20108;-79
2023/05/28 05:43:47;;;;;;;14.32;10.13;;;;;;;20.45;60.31;101172.97;4993299;28;20051;-79
2023/05/28 05:46:14;;;;;;;15.30;10.70;;;;;;;21.01;58.89;101175.03;4976434;28;20058;-79
2023/05/28 05:48:41;;;;;;;14.73;9.52;;;;;;;20.24;58.53;101170.53;4995151;28;20137;-80
2023/05/28 05:51:08;;;;;;;16.10;10.27;;;;;;;20.64;58.85;101177.44;4997471;28;20554;-79
2023/05/28 05:53:41;;;;;;;15.38;10.07;;;;;;;20.71;59.09;101175.56;4997172;28;20110;-79
2023/05/28 05:56:08;;;;;;;18.00;10.27;;;;;;;21.43;57.23;101161.13;4988961;28;20051;-78
2023/05/28 05:58:37;;;;;;;17.70;10.23;;;;;;;21.61;56.58;101154.25;5024057;22;20077;-79
2023/05/28 06:01:04;;;;;;;16.33;10.40;;;;;;;20.63;56.32;101153.72;5001009;28;20520;-78
2023/05/28 06:03:31;;;;;;;14.48;9.65;;;;;;;20.13;57.65;101148.06;5015548;28;20048;-79
2023/05/28 06:05:58;;;;;;;13.88;9.57;;;;;;;21.10;56.43;101144.50;5009528;28;20045;-78
2023/05/28 06:08:25;;;;;;;17.35;11.15;;;;;;;21.70;54.74;101148.47;5006963;28;20077;-79
2023/05/28 06:10:52;;;;;;;13.57;9.40;;;;;;;22.25;53.21;101153.13;5005529;28;20570;-78
2023/05/28 06:13:18;;;;;;;16.25;9.35;;;;;;;22.74;53.08;101158.31;5006869;28;20120;-78
2023/05/28 06:15:46;;;;;;;18.02;9.50;;;;;;;23.46;51.72;101156.56;5007020;28;20183;-79
2023/05/28 06:18:13;;;;;;;12.50;9.52;;;;;;;23.61;51.79;101158.84;5014593;28;20110;-79
2023/05/28 06:20:40;;;;;;;15.32;9.60;;;;;;;23.50;51.01;101159.59;5012887;28;20073;-79
2023/05/28 06:23:07;;;;;;;13.27;9.70;;;;;;;23.96;50.87;101160.75;5029926;28;20128;-80
2023/05/28 06:25:35;;;;;;;13.00;8.93;;;;;;;24.35;50.11;101178.00;5029315;28;20049;-80
2023/05/28 06:28:01;;;;;;;12.85;9.18;;;;;;;24.35;49.62;101165.44;5020941;28;20112;-81
2023/05/28 06:30:29;;;;;;;12.77;9.32;;;;;;;24.25;48.76;101169.69;5024350;28;20053;-79
2023/05/28 06:32:57;;;;;;;13.18;9.45;;;;;;;24.92;49.30;101170.09;5028930;28;20053;-79
2023/05/28 06:35:23;;;;;;;14.68;10.40;;;;;;;24.80;49.65;101173.59;5027778;28;20054;-80
2023/05/28 06:37:50;;;;;;;15.20;10.07;;;;;;;25.12;48.92;101165.13;5010880;28;20083;-79
2023/05/28 06:40:17;;;;;;;12.13;10.05;;;;;;;25.25;47.03;101164.03;5014317;28;20081;-78
2023/05/28 06:42:43;;;;;;;16.08;9.40;;;;;;;23.62;49.10;101149.00;5029057;28;20046;-80
2023/05/28 06:45:10;;;;;;;14.68;10.60;;;;;;;24.49;49.37;101152.63;5021782;28;20516;-81
2023/05/28 06:47:37;;;;;;;15.40;9.60;;;;;;;24.40;50.22;101157.53;5023741;28;20069;-80
2023/05/28 06:50:06;;;;;;;14.23;9.35;;;;;;;24.74;48.27;101168.38;5032107;28;20069;-78
2023/05/28 06:52:33;;;;;;;15.40;9.50;;;;;;;24.60;48.08;101159.78;5009525;28;20068;-80
2023/05/28 06:54:59;;;;;;;12.25;8.60;;;;;;;24.20;49.42;101164.22;5004079;28;20144;-79
2023/05/28 06:57:26;;;;;;;15.52;9.35;;;;;;;24.67;47.80;101160.47;5014539;28;20113;-79
2023/05/28 06:59:52;;;;;;;13.05;9.07;;;;;;;24.09;48.90;101157.88;5012029;28;20088;-80
2023/05/28 07:02:19;;;;;;;14.52;8.65;;;;;;;25.59;47.32;101162.22;5012582;28;20484;-81
2023/05/28 07:04:46;;;;;;;14.23;8.05;;;;;;;25.14;46.61;101174.56;5011430;28;20483;-79
2023/05/28 07:07:14;;;;;;;15.25;8.65;;;;;;;25.60;47.23;101164.66;5006482;28;20136;-79
2023/05/28 07:09:41;;;;;;;14.25;8.43;;;;;;;26.30;46.68;101176.78;5011415;28;20133;-79
2023/05/28 07:12:07;;;;;;;12.50;7.75;;;;;;;26.08;45.52;101174.03;5000532;28;20125;-79
2023/05/28 07:14:34;;;;;;;13.65;7.65;;;;;;;26.45;45.79;101171.66;5015983;28;20088;-82
2023/05/28 07:17:02;;;;;;;13.45;7.75;;;;;;;25.21;46.66;101171.75;5013528;28;20057;-83
2023/05/28 07:38:18;;;;;;;14.10;6.38;;;;;;;26.75;42.73;101174.72;5139294;27;20389;-78
2023/05/28 07:40:45;;;;;;;11.43;6.32;;;;;;;26.19;43.24;101175.00;5110349;28;20056;-77
2023/05/28 07:43:11;;;;;;;10.65;6.10;;;;;;;26.88;42.23;101172.72;5106731;28;20050;-77
2023/05/28 07:45:38;;;;;;;10.88;6.80;;;;;;;25.91;42.41;101162.50;5115500;28;20070;-79
2023/05/28 07:48:05;;;;;;;10.75;6.78;;;;;;;26.20;43.06;101164.00;5126877;28;20109;-78
2023/05/28 07:50:32;;;;;;;9.90;6.20;;;;;;;26.19;42.99;101166.94;5116777;28;20044;-78
2023/05/28 07:52:58;;;;;;;13.10;6.30;;;;;;;26.54;43.54;101172.00;5116152;28;20051;-78
2023/05/28 07:55:26;;;;;;;10.95;6.47;;;;;;;27.11;42.06;101161.72;5117695;28;20040;-79
2023/05/28 07:57:54;;;;;;;14.32;6.35;;;;;;;27.29;42.32;101163.25;5112183;28;20406;-78
2023/05/28 08:00:21;;;;;;;9.40;6.25;;;;;;;27.03;41.73;101159.47;5105544;28;20057;-80
2023/05/28 08:02:48;;;;;;;9.57;6.20;;;;;;;26.51;42.75;101154.53;5122458;28;20059;-79
2023/05/28 08:05:15;;;;;;;12.02;6.10;;;;;;;27.11;43.19;101156.34;5120634;28;20073;-79
2023/05/28 08:07:41;;;;;;;8.65;6.07;;;;;;;27.03;42.61;101148.72;5120452;27;20149;-79
2023/05/28 08:10:08;;;;;;;12.68;6.90;;;;;;;27.42;42.53;101155.56;5113675;28;20119;-78
2023/05/28 08:12:36;;;;;;;11.88;7.15;;;;;;;27.31;42.02;101151.19;5108271;28;20078;-79
2023/05/28 08:15:06;;;;;;;11.27;6.65;;;;;;;27.44;43.22;101145.34;5110909;28;20051;-76
2023/05/28 08:17:32;;;;;;;9.80;7.13;;;;;;;26.98;44.09;101129.88;5109913;28;20139;-78
2023/05/28 08:19:59;;;;;;;12.93;7.00;;;;;;;27.30;44.58;101135.31;5112222;28;20135;-79
2023/05/28 08:22:26;;;;;;;11.25;6.93;;;;;;;28.02;43.46;101143.69;5104279;28;20051;-79
2023/05/28 08:24:52;;;;;;;11.80;7.38;;;;;;;28.27;43.25;101144.94;5108872;28;20136;-79
2023/05/28 08:27:19;;;;;;;10.55;7.13;;;;;;;28.02;43.34;101143.69;5104668;28;20767;-80
2023/05/28 08:29:47;;;;;;;13.35;7.38;;;;;;;27.20;44.16;101133.31;5107630;28;20048;-78
2023/05/28 08:32:14;;;;;;;11.85;7.15;;;;;;;26.64;45.67;101135.38;5112158;28;20126;-79
2023/05/28 08:34:41;;;;;;;10.63;6.97;;;;;;;25.96;46.31;101128.56;5109785;28;20101;-78
2023/05/28 08:37:08;;;;;;;12.45;6.90;;;;;;;26.18;46.57;101125.09;5110705;28;20509;-79
2023/05/28 08:39:34;;;;;;;10.05;6.93;;;;;;;26.98;45.99;101113.75;5094894;28;20044;-79
2023/05/28 08:42:01;;;;;;;13.43;6.97;;;;;;;27.23;44.49;101114.00;5103615;28;20079;-79
2023/05/28 08:44:28;;;;;;;10.95;6.65;;;;;;;25.57;46.07;101105.38;5105349;28;20069;-79
2023/05/28 08:46:57;;;;;;;8.82;6.20;;;;;;;26.14;47.45;101119.41;5099191;28;20545;-78
2023/05/28 08:49:31;;;;;;;12.52;6.93;;;;;;;26.18;46.87;101111.69;5095592;28;20051;-77
2023/05/28 08:52:03;;;;;;;11.93;6.57;;;;;;;27.14;45.19;101102.09;5097153;28;20036;-78
2023/05/28 08:54:51;;;;;;;16.17;6.85;;;;;;;27.11;45.29;101105.28;5101279;28;20122;-78
2023/05/28 08:57:23;;;;;;;9.77;5.97;;;;;;;28.15;43.51;101106.63;5086430;28;20481;-80
2023/05/28 08:59:50;;;;;;;11.10;6.38;;;;;;;28.16;42.85;101108.25;5092205;28;20071;-78
2023/05/28 09:02:18;;;;;;;12.10;6.60;;;;;;;26.99;42.11;101093.88;5108443;28;20071;-79
2023/05/28 09:04:46;;;;;;;8.23;5.82;;;;;;;26.15;43.07;101094.19;5110701;28;20132;-79
2023/05/28 09:07:12;;;;;;;9.35;6.28;;;;;;;25.03;44.49;101076.38;5113351;28;20043;-79
2023/05/28 09:09:40;;;;;;;12.40;6.50;;;;;;;25.81;44.34;101074.69;5112231;28;20082;-78
2023/05/28 09:12:11;;;;;;;9.30;5.75;;;;;;;26.95;43.21;101076.63;5115305;28;20127;-80
2023/05/28 09:14:40;;;;;;;9.90;5.93;;;;;;;27.24;41.82;101069.97;5113497;28;20071;-80
2023/05/28 09:17:08;;;;;;;11.10;6.10;;;;;;;26.05;42.47;101061.88;5102998;28;20044;-78
2023/05/28 09:19:37;;;;;;;12.63;6.47;;;;;;;26.41;42.99;101071.25;5093711;28;20052;-80
2023/05/28 09:22:04;;;;;;;11.50;6.03;;;;;;;26.04;42.81;101069.13;5098148;28;20667;-79
2023/05/28 09:24:31;;;;;;;9.55;6.47;;;;;;;25.63;43.15;101064.19;5092211;28;20041;-79
2023/05/28 09:27:00;;;;;;;12.90;6.28;;;;;;;25.41;43.78;101072.19;5094094;28;20052;-79
2023/05/28 09:29:27;;;;;;;12.32;6.30;;;;;;;25.65;43.67;101067.47;5104688;28;20104;-78
2023/05/28 09:31:57;;;;;;;11.82;6.20;;;;;;;25.22;42.63;101055.53;5104198;28;20036;-79
2023/05/28 09:34:27;;;;;;;9.82;5.60;;;;;;;25.89;42.49;101052.03;5104045;28;20032;-79
2023/05/28 09:37:00;;;;;;;9.18;5.68;;;;;;;26.69;41.63;101059.47;5084167;28;20059;-79
2023/05/28 09:39:27;;;;;;;;;;;;;;;26.19;41.05;101041.69;5086580;28;20059;-78
2023/05/28 09:42:09;;;;;;;9.95;5.80;;;;;;;25.68;41.18;101035.66;5084275;28;19921;-78
2023/05/28 09:44:36;;;;;;;11.50;5.67;;;;;;;25.99;41.36;101039.56;5084635;28;20076;-80
2023/05/28 09:47:13;;;;;;;9.95;5.45;;;;;;;25.41;41.87;101040.03;5105915;28;20488;-77
2023/05/28 09:49:40;;;;;;;10.30;6.03;;;;;;;25.46;44.25;101048.97;5089383;28;20059;-78
2023/05/28 09:52:10;;;;;;;8.63;5.45;;;;;;;26.37;41.85;101030.69;5092049;28;20051;-77
2023/05/28 09:54:38;;;;;;;8.43;5.88;;;;;;;25.61;42.12;101043.00;5091529;28;20393;-77
2023/05/28 09:57:11;;;;;;;13.55;5.78;;;;;;;24.98;43.78;101046.03;5093436;28;20075;-80
2023/05/28 09:59:40;;;;;;;12.30;6.03;;;;;;;24.63;44.14;101044.28;5102251;28;20525;-79
2023/05/28 10:09:31;;;;;;;10.15;6.45;;;;;;;24.98;44.09;101030.78;4949222;28;20099;-74
2023/05/28 10:12:04;;;;;;;10.25;6.20;;;;;;;25.45;44.64;101038.50;5026127;28;20077;-75
2023/05/28 10:14:31;;;;;;;12.10;5.97;;;;;;;26.13;43.87;101037.31;5075754;28;20093;-79
2023/05/28 10:16:59;;;;;;;10.70;6.80;;;;;;;25.90;41.66;101027.66;5094325;28;20048;-75
2023/05/28 10:19:28;;;;;;;8.77;5.90;;;;;;;25.81;42.49;101029.13;5093297;28;20074;-79
2023/05/28 10:21:56;;;;;;;9.43;6.00;;;;;;;26.29;41.90;101024.91;5089302;28;20048;-76
2023/05/28 10:24:27;;;;;;;10.98;6.55;;;;;;;25.90;42.28;101032.19;5086214;28;20052;-79
2023/05/28 10:26:54;;;;;;;10.18;5.68;;;;;;;26.06;42.73;101028.63;5089549;28;20515;-78
2023/05/28 10:29:21;;;;;;;8.25;5.70;;;;;;;25.20;40.93;101019.31;5087269;28;20525;-77
2023/05/28 10:32:01;;;;;;;9.25;5.55;;;;;;;24.96;39.93;101016.00;5087120;28;20055;-78
2023/05/28 10:34:34;;;;;;;10.43;5.97;;;;;;;25.27;41.37;101017.31;5090137;28;20040;-77
2023/05/28 10:37:02;;;;;;;12.98;6.13;;;;;;;25.30;42.34;101036.38;5092540;28;20130;-77
2023/05/28 10:39:45;;;;;;;9.85;5.68;;;;;;;25.49;40.54;101009.34;5090744;28;20063;-77
2023/05/28 10:42:15;;;;;;;8.30;5.32;;;;;;;25.89;39.99;101015.31;5087734;28;20055;-77
2023/05/28 10:45:04;;;;;;;11.75;5.97;;;;;;;25.58;41.88;101021.25;5092466;28;20064;-77
2023/05/28 10:47:32;;;;;;;9.00;6.00;;;;;;;25.27;41.85;101028.81;5085010;28;20441;-76
2023/05/28 10:50:02;;;;;;;10.55;5.80;;;;;;;25.12;41.89;101025.88;5095273;28;20079;-77
2023/05/28 10:52:35;;;;;;;10.35;6.10;;;;;;;25.38;42.56;101027.94;5096175;28;20043;-76
2023/05/28 10:55:30;;;;;;;8.05;6.00;;;;;;;24.70;40.35;101012.00;5099365;28;20042;-77
2023/05/28 10:58:11;;;;;;;9.82;5.95;;;;;;;24.60;39.20;100999.25;5110377;28;20483;-76
2023/05/28 11:00:58;;;;;;;9.55;5.20;;;;;;;24.32;40.26;101008.09;5094270;28;20808;-76
2023/05/28 11:07:11;;;;;;;10.95;6.47;;;;;;;25.16;40.51;100999.44;5077418;28;20051;-75
2023/05/28 11:10:10;;;;;;;7.95;5.82;;;;;;;25.15;40.22;101014.69;5092159;28;20040;-75
2023/05/28 11:13:30;;;;;;;10.00;6.03;;;;;;;25.40;40.25;101009.75;5093232;28;20131;-74
2023/05/28 11:19:50;;;;;;;9.88;5.68;;;;;;;25.40;42.29;101023.16;5088285;28;20056;-74
2023/05/28 11:22:31;;;;;;;11.27;6.80;;;;;;;25.03;44.72;101027.38;5090908;28;20058;-73
2023/05/28 11:24:59;;;;;;;9.02;6.15;;;;;;;25.16;44.51;101029.72;5090960;28;20050;-75
2023/05/28 11:27:33;;;;;;;10.50;6.68;;;;;;;24.78;43.77;101015.13;5083210;28;20136;-75
2023/05/28 11:30:45;;;;;;;10.57;6.30;;;;;;;24.90;43.73;101022.28;5087052;28;20044;-75
2023/05/28 11:33:31;;;;;;;;;;;;;;;;;;;;;
2023/05/28 11:36:20;;;;;;;11.85;6.25;;;;;;;25.57;42.75;101014.25;5093151;28;20445;-73
2023/05/28 11:39:01;;;;;;;12.02;6.50;;;;;;;24.93;43.21;101001.19;5091176;28;20044;-73
2023/05/28 11:44:21;;;;;;;10.38;6.25;;;;;;;25.36;43.61;101008.63;5087664;28;20055;-77
2023/05/28 11:46:51;;;;;;;11.48;6.03;;;;;;;25.49;43.00;101004.81;5086584;28;20679;-76
2023/05/28 11:49:20;;;;;;;9.50;6.35;;;;;;;25.46;43.17;101008.78;5086999;28;20082;-77
2023/05/28 11:51:59;;;;;;;10.85;5.95;;;;;;;25.24;43.12;101002.53;5091347;28;20051;-76
2023/05/28 11:54:33;;;;;;;10.20;5.80;;;;;;;25.67;43.01;101011.78;5087792;28;20044;-76
2023/05/28 11:57:06;;;;;;;10.50;5.95;;;;;;;25.15;43.09;101003.97;5081127;28;20056;-74
2023/05/28 11:59:32;;;;;;;;;;;;;;;25.28;42.47;101009.03;5080441;28;20163;-78
2023/05/28 12:02:14;;;;;;;10.77;6.60;;;;;;;25.63;42.17;101000.69;5086796;28;20098;-75